sensor_id;sensor_type;location;lat;lon;timestamp;P1;durP1;ratioP1;P2;durP2;ratioP2
39956;SDS011;48483;44.640;7.494;2022-11-14T00:00:52;21.98;;;18.77;;
39956;SDS011;48483;44.640;7.494;2022-11-14T00:03:37;25.67;;;20.60;;
39956;SDS011;48483;44.640;7.494;2022-11-14T00:06:24;25.13;;;19.63;;
39956;SDS011;48483;44.640;7.494;2022-11-14T00:09:09;22.88;;;20.48;;
39956;SDS011;48483;44.640;7.494;2022-11-14T00:11:54;26.85;;;21.38;;
39956;SDS011;48483;44.640;7.494;2022-11-14T00:14:40;25.23;;;21.02;;
39956;SDS011;48483;44.640;7.494;2022-11-14T00:17:25;26.75;;;21.83;;
39956;SDS011;48483;44.640;7.494;2022-11-14T00:20:11;26.48;;;23.35;;
39956;SDS011;48483;44.640;7.494;2022-11-14T00:22:57;28.65;;;23.10;;
39956;SDS011;48483;44.640;7.494;2022-11-14T00:25:43;26.38;;;21.75;;
39956;SDS011;48483;44.640;7.494;2022-11-14T00:28:29;25.65;;;21.27;;
39956;SDS011;48483;44.640;7.494;2022-11-14T00:31:14;23.33;;;19.70;;
39956;SDS011;48483;44.640;7.494;2022-11-14T00:33:59;23.85;;;20.38;;
39956;SDS011;48483;44.640;7.494;2022-11-14T00:36:45;22.27;;;19.80;;
39956;SDS011;48483;44.640;7.494;2022-11-14T00:39:32;27.10;;;21.35;;
39956;SDS011;48483;44.640;7.494;2022-11-14T00:42:17;26.20;;;21.38;;
39956;SDS011;48483;44.640;7.494;2022-11-14T00:45:02;23.55;;;21.10;;
39956;SDS011;48483;44.640;7.494;2022-11-14T00:47:48;25.58;;;21.42;;
39956;SDS011;48483;44.640;7.494;2022-11-14T00:50:33;27.35;;;22.83;;
39956;SDS011;48483;44.640;7.494;2022-11-14T00:53:18;28.73;;;23.13;;
39956;SDS011;48483;44.640;7.494;2022-11-14T00:56:05;26.13;;;22.30;;
39956;SDS011;48483;44.640;7.494;2022-11-14T00:58:51;27.10;;;24.33;;
39956;SDS011;48483;44.640;7.494;2022-11-14T01:01:36;29.00;;;24.55;;
39956;SDS011;48483;44.640;7.494;2022-11-14T01:04:21;32.67;;;25.83;;
39956;SDS011;48483;44.640;7.494;2022-11-14T01:07:06;29.60;;;24.30;;
39956;SDS011;48483;44.640;7.494;2022-11-14T01:09:51;31.58;;;26.00;;
39956;SDS011;48483;44.640;7.494;2022-11-14T01:12:38;29.40;;;24.40;;
39956;SDS011;48483;44.640;7.494;2022-11-14T01:15:23;30.05;;;25.58;;
39956;SDS011;48483;44.640;7.494;2022-11-14T01:18:09;29.30;;;23.90;;
39956;SDS011;48483;44.640;7.494;2022-11-14T01:20:55;31.23;;;25.25;;
39956;SDS011;48483;44.640;7.494;2022-11-14T01:23:41;28.25;;;23.77;;
39956;SDS011;48483;44.640;7.494;2022-11-14T01:26:26;28.38;;;24.05;;
39956;SDS011;48483;44.640;7.494;2022-11-14T01:29:13;34.05;;;24.23;;
39956;SDS011;48483;44.640;7.494;2022-11-14T01:31:58;30.05;;;24.77;;
39956;SDS011;48483;44.640;7.494;2022-11-14T01:34:43;28.88;;;23.17;;
39956;SDS011;48483;44.640;7.494;2022-11-14T01:37:30;29.90;;;24.20;;
39956;SDS011;48483;44.640;7.494;2022-11-14T01:40:15;26.55;;;23.38;;
39956;SDS011;48483;44.640;7.494;2022-11-14T01:46:11;26.25;;;21.92;;
39956;SDS011;48483;44.640;7.494;2022-11-14T01:51:47;29.63;;;22.58;;
39956;SDS011;48483;44.640;7.494;2022-11-14T01:54:36;25.90;;;21.70;;
39956;SDS011;48483;44.640;7.494;2022-11-14T01:57:25;28.90;;;22.60;;
39956;SDS011;48483;44.640;7.494;2022-11-14T02:00:14;25.65;;;21.95;;
39956;SDS011;48483;44.640;7.494;2022-11-14T02:03:01;22.67;;;20.25;;
39956;SDS011;48483;44.640;7.494;2022-11-14T02:05:47;26.85;;;21.73;;
39956;SDS011;48483;44.640;7.494;2022-11-14T02:08:33;25.50;;;20.58;;
39956;SDS011;48483;44.640;7.494;2022-11-14T02:11:20;24.65;;;20.42;;
39956;SDS011;48483;44.640;7.494;2022-11-14T02:14:05;22.77;;;19.13;;
39956;SDS011;48483;44.640;7.494;2022-11-14T02:16:51;21.98;;;19.65;;
39956;SDS011;48483;44.640;7.494;2022-11-14T02:19:42;24.27;;;18.98;;
39956;SDS011;48483;44.640;7.494;2022-11-14T02:22:29;20.80;;;18.60;;
39956;SDS011;48483;44.640;7.494;2022-11-14T02:25:15;21.13;;;18.60;;
39956;SDS011;48483;44.640;7.494;2022-11-14T02:28:02;23.42;;;17.77;;
39956;SDS011;48483;44.640;7.494;2022-11-14T02:30:49;24.08;;;19.70;;
39956;SDS011;48483;44.640;7.494;2022-11-14T02:33:34;20.55;;;18.02;;
39956;SDS011;48483;44.640;7.494;2022-11-14T02:36:19;22.70;;;17.55;;
39956;SDS011;48483;44.640;7.494;2022-11-14T02:39:06;21.50;;;19.35;;
39956;SDS011;48483;44.640;7.494;2022-11-14T02:41:51;20.48;;;18.30;;
39956;SDS011;48483;44.640;7.494;2022-11-14T02:44:37;21.65;;;18.60;;
39956;SDS011;48483;44.640;7.494;2022-11-14T02:47:22;21.77;;;17.52;;
39956;SDS011;48483;44.640;7.494;2022-11-14T02:50:08;20.55;;;17.48;;
39956;SDS011;48483;44.640;7.494;2022-11-14T02:52:53;22.40;;;18.63;;
39956;SDS011;48483;44.640;7.494;2022-11-14T02:55:40;19.30;;;17.30;;
39956;SDS011;48483;44.640;7.494;2022-11-14T02:58:25;20.25;;;18.15;;
39956;SDS011;48483;44.640;7.494;2022-11-14T03:01:11;23.33;;;17.98;;
39956;SDS011;48483;44.640;7.494;2022-11-14T03:03:56;22.05;;;18.30;;
39956;SDS011;48483;44.640;7.494;2022-11-14T03:06:41;21.60;;;18.08;;
39956;SDS011;48483;44.640;7.494;2022-11-14T03:09:26;21.60;;;18.92;;
39956;SDS011;48483;44.640;7.494;2022-11-14T03:12:15;20.08;;;17.40;;
39956;SDS011;48483;44.640;7.494;2022-11-14T03:15:01;20.40;;;17.70;;
39956;SDS011;48483;44.640;7.494;2022-11-14T03:17:46;22.35;;;17.15;;
39956;SDS011;48483;44.640;7.494;2022-11-14T03:20:31;19.38;;;16.92;;
39956;SDS011;48483;44.640;7.494;2022-11-14T03:23:17;20.95;;;17.02;;
39956;SDS011;48483;44.640;7.494;2022-11-14T03:26:03;20.23;;;16.23;;
39956;SDS011;48483;44.640;7.494;2022-11-14T03:28:50;20.65;;;17.33;;
39956;SDS011;48483;44.640;7.494;2022-11-14T03:31:35;20.52;;;17.58;;
39956;SDS011;48483;44.640;7.494;2022-11-14T03:34:21;22.45;;;17.15;;
39956;SDS011;48483;44.640;7.494;2022-11-14T03:37:06;17.92;;;15.73;;
39956;SDS011;48483;44.640;7.494;2022-11-14T03:39:51;19.95;;;17.55;;
39956;SDS011;48483;44.640;7.494;2022-11-14T03:42:36;22.25;;;18.05;;
39956;SDS011;48483;44.640;7.494;2022-11-14T03:45:22;21.85;;;17.65;;
39956;SDS011;48483;44.640;7.494;2022-11-14T03:48:07;25.30;;;19.23;;
39956;SDS011;48483;44.640;7.494;2022-11-14T03:50:53;21.05;;;17.75;;
39956;SDS011;48483;44.640;7.494;2022-11-14T03:53:38;20.85;;;17.58;;
39956;SDS011;48483;44.640;7.494;2022-11-14T03:56:23;22.35;;;17.40;;
39956;SDS011;48483;44.640;7.494;2022-11-14T03:59:08;23.05;;;17.23;;
39956;SDS011;48483;44.640;7.494;2022-11-14T04:01:54;18.90;;;16.88;;
39956;SDS011;48483;44.640;7.494;2022-11-14T04:04:40;23.60;;;17.88;;
39956;SDS011;48483;44.640;7.494;2022-11-14T04:07:25;22.38;;;17.58;;
39956;SDS011;48483;44.640;7.494;2022-11-14T04:10:10;21.05;;;17.65;;
39956;SDS011;48483;44.640;7.494;2022-11-14T04:12:55;20.02;;;16.52;;
39956;SDS011;48483;44.640;7.494;2022-11-14T04:15:40;21.45;;;17.80;;
39956;SDS011;48483;44.640;7.494;2022-11-14T04:18:26;19.98;;;17.13;;
39956;SDS011;48483;44.640;7.494;2022-11-14T04:21:12;21.63;;;18.33;;
39956;SDS011;48483;44.640;7.494;2022-11-14T04:23:57;20.55;;;17.77;;
39956;SDS011;48483;44.640;7.494;2022-11-14T04:26:43;21.60;;;17.90;;
39956;SDS011;48483;44.640;7.494;2022-11-14T04:29:28;19.98;;;17.27;;
39956;SDS011;48483;44.640;7.494;2022-11-14T04:32:13;24.10;;;18.58;;
39956;SDS011;48483;44.640;7.494;2022-11-14T04:35:00;23.02;;;18.40;;
39956;SDS011;48483;44.640;7.494;2022-11-14T04:37:45;22.38;;;18.38;;
39956;SDS011;48483;44.640;7.494;2022-11-14T04:40:31;20.90;;;17.85;;
39956;SDS011;48483;44.640;7.494;2022-11-14T04:43:16;21.45;;;17.63;;
39956;SDS011;48483;44.640;7.494;2022-11-14T04:46:01;22.42;;;18.17;;
39956;SDS011;48483;44.640;7.494;2022-11-14T04:48:46;24.60;;;19.25;;
39956;SDS011;48483;44.640;7.494;2022-11-14T04:51:33;21.80;;;18.50;;
39956;SDS011;48483;44.640;7.494;2022-11-14T04:54:18;21.15;;;18.73;;
39956;SDS011;48483;44.640;7.494;2022-11-14T04:57:03;22.05;;;18.70;;
39956;SDS011;48483;44.640;7.494;2022-11-14T04:59:49;22.30;;;18.38;;
39956;SDS011;48483;44.640;7.494;2022-11-14T05:02:34;25.05;;;20.05;;
39956;SDS011;48483;44.640;7.494;2022-11-14T05:05:19;23.05;;;20.48;;
39956;SDS011;48483;44.640;7.494;2022-11-14T05:08:06;25.60;;;19.75;;
39956;SDS011;48483;44.640;7.494;2022-11-14T05:10:51;22.13;;;19.65;;
39956;SDS011;48483;44.640;7.494;2022-11-14T05:13:36;27.75;;;20.58;;
39956;SDS011;48483;44.640;7.494;2022-11-14T05:16:21;24.23;;;19.52;;
39956;SDS011;48483;44.640;7.494;2022-11-14T05:19:07;22.88;;;18.83;;
39956;SDS011;48483;44.640;7.494;2022-11-14T05:21:52;24.10;;;20.73;;
39956;SDS011;48483;44.640;7.494;2022-11-14T05:24:38;26.67;;;20.67;;
39956;SDS011;48483;44.640;7.494;2022-11-14T05:27:23;29.35;;;20.30;;
39956;SDS011;48483;44.640;7.494;2022-11-14T05:30:09;24.17;;;21.48;;
39956;SDS011;48483;44.640;7.494;2022-11-14T05:32:55;25.63;;;21.77;;
39956;SDS011;48483;44.640;7.494;2022-11-14T05:35:40;25.80;;;21.45;;
39956;SDS011;48483;44.640;7.494;2022-11-14T05:38:25;25.90;;;22.05;;
39956;SDS011;48483;44.640;7.494;2022-11-14T05:41:12;29.15;;;21.65;;
39956;SDS011;48483;44.640;7.494;2022-11-14T05:43:58;24.80;;;19.90;;
39956;SDS011;48483;44.640;7.494;2022-11-14T05:46:44;27.38;;;21.58;;
39956;SDS011;48483;44.640;7.494;2022-11-14T05:49:29;27.13;;;21.88;;
39956;SDS011;48483;44.640;7.494;2022-11-14T05:52:14;26.88;;;21.70;;
39956;SDS011;48483;44.640;7.494;2022-11-14T05:55:01;24.88;;;22.17;;
39956;SDS011;48483;44.640;7.494;2022-11-14T05:57:47;25.92;;;21.15;;
39956;SDS011;48483;44.640;7.494;2022-11-14T06:00:33;25.90;;;22.55;;
39956;SDS011;48483;44.640;7.494;2022-11-14T06:03:18;24.45;;;20.50;;
39956;SDS011;48483;44.640;7.494;2022-11-14T06:06:04;25.80;;;21.48;;
39956;SDS011;48483;44.640;7.494;2022-11-14T06:08:51;24.25;;;20.58;;
39956;SDS011;48483;44.640;7.494;2022-11-14T06:11:36;25.60;;;22.00;;
39956;SDS011;48483;44.640;7.494;2022-11-14T06:14:23;23.95;;;20.63;;
39956;SDS011;48483;44.640;7.494;2022-11-14T06:17:08;27.67;;;23.13;;
39956;SDS011;48483;44.640;7.494;2022-11-14T06:19:53;26.33;;;21.75;;
39956;SDS011;48483;44.640;7.494;2022-11-14T06:22:38;27.00;;;20.70;;
39956;SDS011;48483;44.640;7.494;2022-11-14T06:25:23;25.52;;;21.90;;
39956;SDS011;48483;44.640;7.494;2022-11-14T06:28:09;29.52;;;23.60;;
39956;SDS011;48483;44.640;7.494;2022-11-14T06:30:58;25.50;;;22.15;;
39956;SDS011;48483;44.640;7.494;2022-11-14T06:33:44;30.77;;;23.80;;
39956;SDS011;48483;44.640;7.494;2022-11-14T06:36:30;23.75;;;21.25;;
39956;SDS011;48483;44.640;7.494;2022-11-14T06:39:16;26.13;;;23.10;;
39956;SDS011;48483;44.640;7.494;2022-11-14T06:42:01;28.52;;;23.75;;
39956;SDS011;48483;44.640;7.494;2022-11-14T06:44:46;27.33;;;22.42;;
39956;SDS011;48483;44.640;7.494;2022-11-14T06:47:32;26.77;;;23.45;;
39956;SDS011;48483;44.640;7.494;2022-11-14T06:50:18;24.60;;;22.05;;
39956;SDS011;48483;44.640;7.494;2022-11-14T06:53:03;24.90;;;20.42;;
39956;SDS011;48483;44.640;7.494;2022-11-14T06:55:52;24.52;;;21.90;;
39956;SDS011;48483;44.640;7.494;2022-11-14T06:58:42;27.77;;;23.75;;
39956;SDS011;48483;44.640;7.494;2022-11-14T07:01:28;26.70;;;23.13;;
39956;SDS011;48483;44.640;7.494;2022-11-14T07:04:14;27.80;;;21.77;;
39956;SDS011;48483;44.640;7.494;2022-11-14T07:07:00;24.65;;;21.95;;
39956;SDS011;48483;44.640;7.494;2022-11-14T07:09:45;26.08;;;23.35;;
39956;SDS011;48483;44.640;7.494;2022-11-14T07:12:30;27.48;;;22.60;;
39956;SDS011;48483;44.640;7.494;2022-11-14T07:15:16;29.52;;;23.73;;
39956;SDS011;48483;44.640;7.494;2022-11-14T07:18:01;28.63;;;24.52;;
39956;SDS011;48483;44.640;7.494;2022-11-14T07:20:47;29.73;;;23.73;;
39956;SDS011;48483;44.640;7.494;2022-11-14T07:23:34;29.20;;;24.38;;
39956;SDS011;48483;44.640;7.494;2022-11-14T07:26:19;32.72;;;25.73;;
39956;SDS011;48483;44.640;7.494;2022-11-14T07:29:04;29.85;;;26.38;;
39956;SDS011;48483;44.640;7.494;2022-11-14T07:31:49;31.83;;;26.58;;
39956;SDS011;48483;44.640;7.494;2022-11-14T07:34:35;29.67;;;26.23;;
39956;SDS011;48483;44.640;7.494;2022-11-14T07:37:21;33.72;;;28.45;;
39956;SDS011;48483;44.640;7.494;2022-11-14T07:40:07;37.20;;;30.02;;
39956;SDS011;48483;44.640;7.494;2022-11-14T07:42:55;34.92;;;28.42;;
39956;SDS011;48483;44.640;7.494;2022-11-14T07:45:42;33.15;;;28.20;;
39956;SDS011;48483;44.640;7.494;2022-11-14T07:48:27;36.35;;;30.40;;
39956;SDS011;48483;44.640;7.494;2022-11-14T07:51:13;34.47;;;28.05;;
39956;SDS011;48483;44.640;7.494;2022-11-14T07:54:00;33.13;;;29.42;;
39956;SDS011;48483;44.640;7.494;2022-11-14T07:56:45;40.20;;;31.73;;
39956;SDS011;48483;44.640;7.494;2022-11-14T07:59:31;37.55;;;30.77;;
39956;SDS011;48483;44.640;7.494;2022-11-14T08:02:16;33.53;;;29.20;;
39956;SDS011;48483;44.640;7.494;2022-11-14T08:05:02;40.20;;;30.02;;
39956;SDS011;48483;44.640;7.494;2022-11-14T08:07:49;40.05;;;31.63;;
39956;SDS011;48483;44.640;7.494;2022-11-14T08:10:36;38.08;;;30.17;;
39956;SDS011;48483;44.640;7.494;2022-11-14T08:13:21;36.03;;;31.13;;
39956;SDS011;48483;44.640;7.494;2022-11-14T08:16:07;37.85;;;29.95;;
39956;SDS011;48483;44.640;7.494;2022-11-14T08:18:56;40.33;;;32.65;;
39956;SDS011;48483;44.640;7.494;2022-11-14T08:21:41;40.30;;;32.08;;
39956;SDS011;48483;44.640;7.494;2022-11-14T08:24:27;40.38;;;32.85;;
39956;SDS011;48483;44.640;7.494;2022-11-14T08:27:13;42.75;;;33.58;;
39956;SDS011;48483;44.640;7.494;2022-11-14T08:29:58;39.88;;;32.10;;
39956;SDS011;48483;44.640;7.494;2022-11-14T08:32:44;46.13;;;35.38;;
39956;SDS011;48483;44.640;7.494;2022-11-14T08:35:29;39.97;;;31.70;;
39956;SDS011;48483;44.640;7.494;2022-11-14T08:38:16;41.50;;;33.47;;
39956;SDS011;48483;44.640;7.494;2022-11-14T08:41:01;42.75;;;33.75;;
39956;SDS011;48483;44.640;7.494;2022-11-14T08:43:49;42.20;;;34.95;;
39956;SDS011;48483;44.640;7.494;2022-11-14T08:46:35;48.38;;;36.80;;
39956;SDS011;48483;44.640;7.494;2022-11-14T08:49:20;45.25;;;36.80;;
39956;SDS011;48483;44.640;7.494;2022-11-14T08:52:05;46.47;;;34.80;;
39956;SDS011;48483;44.640;7.494;2022-11-14T08:54:50;50.15;;;38.20;;
39956;SDS011;48483;44.640;7.494;2022-11-14T08:57:36;49.00;;;37.30;;
39956;SDS011;48483;44.640;7.494;2022-11-14T09:00:23;47.25;;;36.17;;
39956;SDS011;48483;44.640;7.494;2022-11-14T09:03:09;48.58;;;38.83;;
39956;SDS011;48483;44.640;7.494;2022-11-14T09:05:56;52.47;;;37.65;;
39956;SDS011;48483;44.640;7.494;2022-11-14T09:08:41;60.78;;;41.15;;
39956;SDS011;48483;44.640;7.494;2022-11-14T09:11:27;53.35;;;40.08;;
39956;SDS011;48483;44.640;7.494;2022-11-14T09:14:12;54.63;;;39.35;;
39956;SDS011;48483;44.640;7.494;2022-11-14T09:16:58;55.55;;;39.90;;
39956;SDS011;48483;44.640;7.494;2022-11-14T09:19:44;50.35;;;38.20;;
39956;SDS011;48483;44.640;7.494;2022-11-14T09:22:30;51.40;;;40.47;;
39956;SDS011;48483;44.640;7.494;2022-11-14T09:25:15;51.95;;;38.45;;
39956;SDS011;48483;44.640;7.494;2022-11-14T09:28:02;51.40;;;38.25;;
39956;SDS011;48483;44.640;7.494;2022-11-14T09:30:48;50.63;;;38.47;;
39956;SDS011;48483;44.640;7.494;2022-11-14T09:33:35;55.38;;;39.58;;
39956;SDS011;48483;44.640;7.494;2022-11-14T09:36:20;48.88;;;37.08;;
39956;SDS011;48483;44.640;7.494;2022-11-14T09:39:07;50.55;;;36.45;;
39956;SDS011;48483;44.640;7.494;2022-11-14T09:41:56;48.55;;;33.78;;
39956;SDS011;48483;44.640;7.494;2022-11-14T09:44:53;47.50;;;35.25;;
39956;SDS011;48483;44.640;7.494;2022-11-14T09:47:41;49.70;;;34.75;;
39956;SDS011;48483;44.640;7.494;2022-11-14T09:50:31;45.45;;;33.40;;
39956;SDS011;48483;44.640;7.494;2022-11-14T09:53:21;48.38;;;36.03;;
39956;SDS011;48483;44.640;7.494;2022-11-14T09:56:14;44.55;;;35.75;;
39956;SDS011;48483;44.640;7.494;2022-11-14T09:59:04;45.47;;;34.40;;
39956;SDS011;48483;44.640;7.494;2022-11-14T10:01:56;43.13;;;32.50;;
39956;SDS011;48483;44.640;7.494;2022-11-14T10:04:49;47.47;;;35.38;;
39956;SDS011;48483;44.640;7.494;2022-11-14T10:07:50;52.15;;;35.08;;
39956;SDS011;48483;44.640;7.494;2022-11-14T10:10:47;44.65;;;33.28;;
39956;SDS011;48483;44.640;7.494;2022-11-14T10:13:44;51.28;;;33.25;;
39956;SDS011;48483;44.640;7.494;2022-11-14T10:16:45;44.92;;;32.90;;
39956;SDS011;48483;44.640;7.494;2022-11-14T10:19:40;47.17;;;32.47;;
39956;SDS011;48483;44.640;7.494;2022-11-14T10:22:39;43.63;;;32.35;;
39956;SDS011;48483;44.640;7.494;2022-11-14T10:25:36;45.47;;;32.92;;
39956;SDS011;48483;44.640;7.494;2022-11-14T10:28:34;43.78;;;32.90;;
39956;SDS011;48483;44.640;7.494;2022-11-14T10:31:32;43.53;;;32.75;;
39956;SDS011;48483;44.640;7.494;2022-11-14T10:34:27;39.13;;;31.88;;
39956;SDS011;48483;44.640;7.494;2022-11-14T10:37:18;36.97;;;28.90;;
39956;SDS011;48483;44.640;7.494;2022-11-14T10:40:13;43.13;;;32.55;;
39956;SDS011;48483;44.640;7.494;2022-11-14T10:43:04;43.30;;;31.20;;
39956;SDS011;48483;44.640;7.494;2022-11-14T10:46:08;39.95;;;29.25;;
39956;SDS011;48483;44.640;7.494;2022-11-14T10:48:58;40.38;;;29.23;;
39956;SDS011;48483;44.640;7.494;2022-11-14T10:51:45;38.85;;;29.95;;
39956;SDS011;48483;44.640;7.494;2022-11-14T10:54:35;39.85;;;30.52;;
39956;SDS011;48483;44.640;7.494;2022-11-14T10:57:26;49.40;;;32.80;;
39956;SDS011;48483;44.640;7.494;2022-11-14T11:00:14;41.67;;;29.95;;
39956;SDS011;48483;44.640;7.494;2022-11-14T11:03:01;42.22;;;29.02;;
39956;SDS011;48483;44.640;7.494;2022-11-14T11:05:49;38.60;;;29.33;;
39956;SDS011;48483;44.640;7.494;2022-11-14T11:11:46;38.13;;;27.08;;
39956;SDS011;48483;44.640;7.494;2022-11-14T11:14:39;41.13;;;29.05;;
39956;SDS011;48483;44.640;7.494;2022-11-14T11:17:26;40.03;;;29.65;;
39956;SDS011;48483;44.640;7.494;2022-11-14T11:20:20;41.80;;;30.05;;
39956;SDS011;48483;44.640;7.494;2022-11-14T11:23:16;37.95;;;28.67;;
39956;SDS011;48483;44.640;7.494;2022-11-14T11:26:03;46.35;;;29.58;;
39956;SDS011;48483;44.640;7.494;2022-11-14T11:29:04;39.90;;;29.35;;
39956;SDS011;48483;44.640;7.494;2022-11-14T11:31:58;40.60;;;28.58;;
39956;SDS011;48483;44.640;7.494;2022-11-14T11:34:45;40.47;;;29.23;;
39956;SDS011;48483;44.640;7.494;2022-11-14T11:37:32;40.30;;;29.63;;
39956;SDS011;48483;44.640;7.494;2022-11-14T11:40:24;45.10;;;30.33;;
39956;SDS011;48483;44.640;7.494;2022-11-14T11:43:12;47.17;;;31.02;;
39956;SDS011;48483;44.640;7.494;2022-11-14T11:46:04;42.17;;;30.23;;
39956;SDS011;48483;44.640;7.494;2022-11-14T11:48:58;42.95;;;30.70;;
39956;SDS011;48483;44.640;7.494;2022-11-14T11:51:51;43.53;;;31.33;;
39956;SDS011;48483;44.640;7.494;2022-11-14T11:54:45;40.50;;;30.60;;
39956;SDS011;48483;44.640;7.494;2022-11-14T11:57:41;43.47;;;32.55;;
39956;SDS011;48483;44.640;7.494;2022-11-14T12:00:28;42.25;;;31.17;;
39956;SDS011;48483;44.640;7.494;2022-11-14T12:03:14;39.33;;;30.13;;
39956;SDS011;48483;44.640;7.494;2022-11-14T12:06:02;41.05;;;29.98;;
39956;SDS011;48483;44.640;7.494;2022-11-14T12:09:04;40.72;;;28.50;;
39956;SDS011;48483;44.640;7.494;2022-11-14T12:11:56;36.90;;;29.58;;
39956;SDS011;48483;44.640;7.494;2022-11-14T12:21:16;42.22;;;31.20;;
39956;SDS011;48483;44.640;7.494;2022-11-14T12:24:18;38.90;;;29.50;;
39956;SDS011;48483;44.640;7.494;2022-11-14T12:27:18;37.42;;;28.85;;
39956;SDS011;48483;44.640;7.494;2022-11-14T12:30:10;39.08;;;28.67;;
39956;SDS011;48483;44.640;7.494;2022-11-14T12:32:59;35.30;;;27.35;;
39956;SDS011;48483;44.640;7.494;2022-11-14T12:35:48;33.38;;;26.17;;
39956;SDS011;48483;44.640;7.494;2022-11-14T12:38:39;35.55;;;26.77;;
39956;SDS011;48483;44.640;7.494;2022-11-14T12:41:29;32.88;;;25.92;;
39956;SDS011;48483;44.640;7.494;2022-11-14T12:44:17;32.08;;;25.75;;
39956;SDS011;48483;44.640;7.494;2022-11-14T12:47:16;30.60;;;23.83;;
39956;SDS011;48483;44.640;7.494;2022-11-14T12:50:06;34.10;;;26.67;;
39956;SDS011;48483;44.640;7.494;2022-11-14T12:53:40;31.38;;;24.70;;
39956;SDS011;48483;44.640;7.494;2022-11-14T12:59:57;26.98;;;21.38;;
39956;SDS011;48483;44.640;7.494;2022-11-14T13:06:06;26.05;;;19.25;;
39956;SDS011;48483;44.640;7.494;2022-11-14T13:12:17;26.75;;;19.23;;
39956;SDS011;48483;44.640;7.494;2022-11-14T13:15:35;24.58;;;19.17;;
39956;SDS011;48483;44.640;7.494;2022-11-14T13:18:50;23.80;;;18.25;;
39956;SDS011;48483;44.640;7.494;2022-11-14T13:25:22;25.25;;;20.48;;
39956;SDS011;48483;44.640;7.494;2022-11-14T13:31:41;26.60;;;20.63;;
39956;SDS011;48483;44.640;7.494;2022-11-14T13:34:30;25.45;;;19.92;;
39956;SDS011;48483;44.640;7.494;2022-11-14T13:37:26;25.65;;;20.45;;
39956;SDS011;48483;44.640;7.494;2022-11-14T13:40:30;25.45;;;20.08;;
39956;SDS011;48483;44.640;7.494;2022-11-14T13:43:21;26.52;;;20.90;;
39956;SDS011;48483;44.640;7.494;2022-11-14T13:46:16;26.35;;;20.38;;
39956;SDS011;48483;44.640;7.494;2022-11-14T13:49:22;29.20;;;21.65;;
39956;SDS011;48483;44.640;7.494;2022-11-14T13:52:18;31.98;;;23.42;;
39956;SDS011;48483;44.640;7.494;2022-11-14T13:55:04;29.75;;;22.85;;
39956;SDS011;48483;44.640;7.494;2022-11-14T13:57:55;27.08;;;22.45;;
39956;SDS011;48483;44.640;7.494;2022-11-14T14:00:55;26.80;;;21.42;;
39956;SDS011;48483;44.640;7.494;2022-11-14T14:03:56;27.20;;;21.65;;
39956;SDS011;48483;44.640;7.494;2022-11-14T14:06:56;28.75;;;20.02;;
39956;SDS011;48483;44.640;7.494;2022-11-14T14:09:52;28.42;;;20.23;;
39956;SDS011;48483;44.640;7.494;2022-11-14T14:12:49;27.80;;;19.73;;
39956;SDS011;48483;44.640;7.494;2022-11-14T14:15:43;28.25;;;20.77;;
39956;SDS011;48483;44.640;7.494;2022-11-14T14:18:40;26.55;;;20.17;;
39956;SDS011;48483;44.640;7.494;2022-11-14T14:21:32;26.17;;;21.15;;
39956;SDS011;48483;44.640;7.494;2022-11-14T14:24:33;25.98;;;20.10;;
39956;SDS011;48483;44.640;7.494;2022-11-14T14:27:28;26.27;;;21.67;;
39956;SDS011;48483;44.640;7.494;2022-11-14T14:30:20;26.70;;;20.92;;
39956;SDS011;48483;44.640;7.494;2022-11-14T14:33:10;23.17;;;19.55;;
39956;SDS011;48483;44.640;7.494;2022-11-14T14:35:56;26.25;;;20.52;;
39956;SDS011;48483;44.640;7.494;2022-11-14T14:38:42;27.55;;;19.38;;
39956;SDS011;48483;44.640;7.494;2022-11-14T14:41:29;28.17;;;20.75;;
39956;SDS011;48483;44.640;7.494;2022-11-14T14:44:17;31.02;;;21.27;;
39956;SDS011;48483;44.640;7.494;2022-11-14T14:47:15;32.10;;;21.60;;
39956;SDS011;48483;44.640;7.494;2022-11-14T14:50:02;25.17;;;21.70;;
39956;SDS011;48483;44.640;7.494;2022-11-14T14:52:55;25.15;;;20.10;;
39956;SDS011;48483;44.640;7.494;2022-11-14T14:55:49;27.02;;;19.27;;
39956;SDS011;48483;44.640;7.494;2022-11-14T14:58:37;23.35;;;18.98;;
39956;SDS011;48483;44.640;7.494;2022-11-14T15:01:22;24.42;;;20.45;;
39956;SDS011;48483;44.640;7.494;2022-11-14T15:04:12;26.75;;;19.77;;
39956;SDS011;48483;44.640;7.494;2022-11-14T15:06:59;26.80;;;20.13;;
39956;SDS011;48483;44.640;7.494;2022-11-14T15:09:50;25.33;;;19.25;;
39956;SDS011;48483;44.640;7.494;2022-11-14T15:12:36;26.10;;;19.70;;
39956;SDS011;48483;44.640;7.494;2022-11-14T15:15:26;25.05;;;20.67;;
39956;SDS011;48483;44.640;7.494;2022-11-14T15:18:13;23.85;;;19.55;;
39956;SDS011;48483;44.640;7.494;2022-11-14T15:21:10;23.42;;;18.58;;
39956;SDS011;48483;44.640;7.494;2022-11-14T15:24:00;20.98;;;17.25;;
39956;SDS011;48483;44.640;7.494;2022-11-14T15:26:47;20.60;;;16.98;;
39956;SDS011;48483;44.640;7.494;2022-11-14T15:29:34;19.33;;;16.90;;
39956;SDS011;48483;44.640;7.494;2022-11-14T15:32:29;19.65;;;16.17;;
39956;SDS011;48483;44.640;7.494;2022-11-14T15:35:23;19.45;;;16.98;;
39956;SDS011;48483;44.640;7.494;2022-11-14T15:38:20;16.88;;;14.80;;
39956;SDS011;48483;44.640;7.494;2022-11-14T15:41:16;21.50;;;16.55;;
39956;SDS011;48483;44.640;7.494;2022-11-14T15:44:03;16.23;;;13.80;;
39956;SDS011;48483;44.640;7.494;2022-11-14T15:46:49;16.20;;;14.38;;
39956;SDS011;48483;44.640;7.494;2022-11-14T15:49:35;14.60;;;13.05;;
39956;SDS011;48483;44.640;7.494;2022-11-14T15:52:22;17.88;;;13.75;;
39956;SDS011;48483;44.640;7.494;2022-11-14T15:55:11;15.23;;;12.95;;
39956;SDS011;48483;44.640;7.494;2022-11-14T15:57:58;13.65;;;11.43;;
39956;SDS011;48483;44.640;7.494;2022-11-14T16:00:44;12.25;;;10.93;;
39956;SDS011;48483;44.640;7.494;2022-11-14T16:03:31;12.77;;;11.35;;
39956;SDS011;48483;44.640;7.494;2022-11-14T16:06:17;13.25;;;11.70;;
39956;SDS011;48483;44.640;7.494;2022-11-14T16:09:02;15.10;;;12.38;;
39956;SDS011;48483;44.640;7.494;2022-11-14T16:11:48;14.82;;;11.73;;
39956;SDS011;48483;44.640;7.494;2022-11-14T16:14:33;14.68;;;12.68;;
39956;SDS011;48483;44.640;7.494;2022-11-14T16:17:18;14.48;;;12.93;;
39956;SDS011;48483;44.640;7.494;2022-11-14T16:20:03;14.25;;;12.75;;
39956;SDS011;48483;44.640;7.494;2022-11-14T16:22:51;16.00;;;12.95;;
39956;SDS011;48483;44.640;7.494;2022-11-14T16:25:37;19.25;;;14.27;;
39956;SDS011;48483;44.640;7.494;2022-11-14T16:28:22;15.02;;;13.13;;
39956;SDS011;48483;44.640;7.494;2022-11-14T16:31:09;15.77;;;13.82;;
39956;SDS011;48483;44.640;7.494;2022-11-14T16:33:55;17.38;;;14.27;;
39956;SDS011;48483;44.640;7.494;2022-11-14T16:36:41;19.05;;;15.93;;
39956;SDS011;48483;44.640;7.494;2022-11-14T16:39:30;18.40;;;15.30;;
39956;SDS011;48483;44.640;7.494;2022-11-14T16:42:16;21.92;;;18.50;;
39956;SDS011;48483;44.640;7.494;2022-11-14T16:45:01;23.60;;;17.27;;
39956;SDS011;48483;44.640;7.494;2022-11-14T16:47:47;22.95;;;18.08;;
39956;SDS011;48483;44.640;7.494;2022-11-14T16:50:32;21.17;;;17.30;;
39956;SDS011;48483;44.640;7.494;2022-11-14T16:53:17;18.33;;;15.45;;
39956;SDS011;48483;44.640;7.494;2022-11-14T16:56:04;19.20;;;16.65;;